sensor_id;sensor_type;location;lat;lon;timestamp;P1;durP1;ratioP1;P2;durP2;ratioP2
63536;SDS011;49686;51.880;5.632;2022-12-16T00:01:20;35.75;;;17.38;;
63536;SDS011;49686;51.880;5.632;2022-12-16T00:03:48;30.33;;;13.90;;
63536;SDS011;49686;51.880;5.632;2022-12-16T00:06:25;29.52;;;14.30;;
63536;SDS011;49686;51.880;5.632;2022-12-16T00:08:55;39.63;;;20.67;;
63536;SDS011;49686;51.880;5.632;2022-12-16T00:11:21;28.92;;;13.63;;
63536;SDS011;49686;51.880;5.632;2022-12-16T00:13:48;33.42;;;16.05;;
63536;SDS011;49686;51.880;5.632;2022-12-16T00:16:18;30.02;;;15.55;;
63536;SDS011;49686;51.880;5.632;2022-12-16T00:18:48;39.47;;;18.30;;
63536;SDS011;49686;51.880;5.632;2022-12-16T00:21:17;36.17;;;17.65;;
63536;SDS011;49686;51.880;5.632;2022-12-16T00:23:45;33.00;;;16.58;;
63536;SDS011;49686;51.880;5.632;2022-12-16T00:26:12;37.88;;;20.17;;
63536;SDS011;49686;51.880;5.632;2022-12-16T00:28:39;30.60;;;14.80;;
63536;SDS011;49686;51.880;5.632;2022-12-16T00:31:08;29.35;;;15.77;;
63536;SDS011;49686;51.880;5.632;2022-12-16T00:33:35;29.50;;;16.35;;
63536;SDS011;49686;51.880;5.632;2022-12-16T00:36:03;34.78;;;17.52;;
63536;SDS011;49686;51.880;5.632;2022-12-16T00:38:33;35.08;;;16.70;;
63536;SDS011;49686;51.880;5.632;2022-12-16T00:41:01;37.03;;;19.50;;
63536;SDS011;49686;51.880;5.632;2022-12-16T00:43:28;40.80;;;20.55;;
63536;SDS011;49686;51.880;5.632;2022-12-16T00:45:58;39.20;;;19.67;;
63536;SDS011;49686;51.880;5.632;2022-12-16T00:48:26;44.13;;;22.33;;
63536;SDS011;49686;51.880;5.632;2022-12-16T00:50:57;36.25;;;18.65;;
63536;SDS011;49686;51.880;5.632;2022-12-16T00:53:23;37.72;;;19.90;;
63536;SDS011;49686;51.880;5.632;2022-12-16T00:55:50;33.72;;;16.80;;
63536;SDS011;49686;51.880;5.632;2022-12-16T00:58:21;39.75;;;20.63;;
63536;SDS011;49686;51.880;5.632;2022-12-16T01:00:50;41.65;;;21.65;;
63536;SDS011;49686;51.880;5.632;2022-12-16T01:03:18;46.63;;;22.60;;
63536;SDS011;49686;51.880;5.632;2022-12-16T01:05:47;44.72;;;21.42;;
63536;SDS011;49686;51.880;5.632;2022-12-16T01:08:14;34.33;;;17.65;;
63536;SDS011;49686;51.880;5.632;2022-12-16T01:10:41;38.42;;;18.80;;
63536;SDS011;49686;51.880;5.632;2022-12-16T01:13:08;35.78;;;18.58;;
63536;SDS011;49686;51.880;5.632;2022-12-16T01:15:39;49.65;;;22.45;;
63536;SDS011;49686;51.880;5.632;2022-12-16T01:18:12;22.48;;;12.65;;
63536;SDS011;49686;51.880;5.632;2022-12-16T01:23:07;41.92;;;18.52;;
63536;SDS011;49686;51.880;5.632;2022-12-16T01:25:34;32.13;;;17.17;;
63536;SDS011;49686;51.880;5.632;2022-12-16T01:28:04;29.92;;;16.05;;
63536;SDS011;49686;51.880;5.632;2022-12-16T01:30:33;29.05;;;15.45;;
63536;SDS011;49686;51.880;5.632;2022-12-16T01:33:01;33.25;;;17.52;;
63536;SDS011;49686;51.880;5.632;2022-12-16T01:35:41;44.53;;;22.52;;
63536;SDS011;49686;51.880;5.632;2022-12-16T01:38:26;45.70;;;22.50;;
63536;SDS011;49686;51.880;5.632;2022-12-16T01:40:52;40.35;;;20.60;;
63536;SDS011;49686;51.880;5.632;2022-12-16T01:43:21;36.92;;;18.42;;
63536;SDS011;49686;51.880;5.632;2022-12-16T01:45:51;33.30;;;18.85;;
63536;SDS011;49686;51.880;5.632;2022-12-16T01:48:21;25.87;;;14.23;;
63536;SDS011;49686;51.880;5.632;2022-12-16T01:50:58;46.63;;;21.45;;
63536;SDS011;49686;51.880;5.632;2022-12-16T01:53:30;44.40;;;23.85;;
63536;SDS011;49686;51.880;5.632;2022-12-16T01:56:02;41.45;;;22.27;;
63536;SDS011;49686;51.880;5.632;2022-12-16T01:58:30;48.95;;;25.02;;
63536;SDS011;49686;51.880;5.632;2022-12-16T02:00:59;35.40;;;17.95;;
63536;SDS011;49686;51.880;5.632;2022-12-16T02:03:28;47.60;;;23.20;;
63536;SDS011;49686;51.880;5.632;2022-12-16T02:05:59;40.55;;;22.00;;
63536;SDS011;49686;51.880;5.632;2022-12-16T02:08:36;45.72;;;22.42;;
63536;SDS011;49686;51.880;5.632;2022-12-16T02:11:06;40.33;;;20.95;;
63536;SDS011;49686;51.880;5.632;2022-12-16T02:13:58;39.95;;;22.10;;
63536;SDS011;49686;51.880;5.632;2022-12-16T02:16:35;22.90;;;11.70;;
63536;SDS011;49686;51.880;5.632;2022-12-16T02:19:14;40.55;;;21.83;;
63536;SDS011;49686;51.880;5.632;2022-12-16T02:21:55;42.50;;;23.08;;
63536;SDS011;49686;51.880;5.632;2022-12-16T02:30:45;40.78;;;21.20;;
63536;SDS011;49686;51.880;5.632;2022-12-16T02:36:23;40.10;;;21.02;;
63536;SDS011;49686;51.880;5.632;2022-12-16T02:38:58;39.22;;;19.98;;
63536;SDS011;49686;51.880;5.632;2022-12-16T02:41:32;44.35;;;22.80;;
63536;SDS011;49686;51.880;5.632;2022-12-16T02:44:07;42.40;;;21.58;;
63536;SDS011;49686;51.880;5.632;2022-12-16T02:46:39;37.38;;;21.10;;
63536;SDS011;49686;51.880;5.632;2022-12-16T02:52:19;36.13;;;19.23;;
63536;SDS011;49686;51.880;5.632;2022-12-16T02:54:50;36.28;;;19.40;;
63536;SDS011;49686;51.880;5.632;2022-12-16T02:57:33;36.20;;;19.85;;
63536;SDS011;49686;51.880;5.632;2022-12-16T03:00:07;38.10;;;21.27;;
63536;SDS011;49686;51.880;5.632;2022-12-16T03:02:38;42.83;;;21.80;;
63536;SDS011;49686;51.880;5.632;2022-12-16T03:05:13;43.85;;;22.52;;
63536;SDS011;49686;51.880;5.632;2022-12-16T03:07:46;40.17;;;22.15;;
63536;SDS011;49686;51.880;5.632;2022-12-16T03:12:44;29.40;;;14.70;;
63536;SDS011;49686;51.880;5.632;2022-12-16T03:15:15;33.78;;;17.80;;
63536;SDS011;49686;51.880;5.632;2022-12-16T03:17:47;42.42;;;23.13;;
63536;SDS011;49686;51.880;5.632;2022-12-16T03:20:19;45.72;;;21.65;;
63536;SDS011;49686;51.880;5.632;2022-12-16T03:22:57;39.65;;;21.70;;
63536;SDS011;49686;51.880;5.632;2022-12-16T03:25:30;41.85;;;22.17;;
63536;SDS011;49686;51.880;5.632;2022-12-16T03:28:01;43.38;;;22.08;;
63536;SDS011;49686;51.880;5.632;2022-12-16T03:30:36;43.03;;;21.95;;
63536;SDS011;49686;51.880;5.632;2022-12-16T03:33:12;47.10;;;22.85;;
63536;SDS011;49686;51.880;5.632;2022-12-16T03:35:49;41.15;;;19.73;;
63536;SDS011;49686;51.880;5.632;2022-12-16T03:38:20;43.85;;;21.35;;
63536;SDS011;49686;51.880;5.632;2022-12-16T03:40:49;41.15;;;22.52;;
63536;SDS011;49686;51.880;5.632;2022-12-16T03:43:23;44.55;;;22.60;;
63536;SDS011;49686;51.880;5.632;2022-12-16T03:45:52;43.17;;;22.95;;
63536;SDS011;49686;51.880;5.632;2022-12-16T03:48:25;44.58;;;22.95;;
63536;SDS011;49686;51.880;5.632;2022-12-16T03:50:51;39.75;;;21.25;;
63536;SDS011;49686;51.880;5.632;2022-12-16T03:53:21;41.50;;;21.85;;
63536;SDS011;49686;51.880;5.632;2022-12-16T03:55:49;45.25;;;23.73;;
63536;SDS011;49686;51.880;5.632;2022-12-16T03:58:16;49.97;;;23.23;;
63536;SDS011;49686;51.880;5.632;2022-12-16T04:00:43;43.80;;;22.20;;
63536;SDS011;49686;51.880;5.632;2022-12-16T04:03:13;38.03;;;19.63;;
63536;SDS011;49686;51.880;5.632;2022-12-16T04:05:41;45.15;;;23.17;;
63536;SDS011;49686;51.880;5.632;2022-12-16T04:08:08;44.92;;;24.08;;
63536;SDS011;49686;51.880;5.632;2022-12-16T04:10:34;45.20;;;23.30;;
63536;SDS011;49686;51.880;5.632;2022-12-16T04:13:06;41.80;;;22.67;;
63536;SDS011;49686;51.880;5.632;2022-12-16T04:15:34;45.15;;;23.63;;
63536;SDS011;49686;51.880;5.632;2022-12-16T04:18:02;46.08;;;23.42;;
63536;SDS011;49686;51.880;5.632;2022-12-16T04:20:33;38.80;;;21.77;;
63536;SDS011;49686;51.880;5.632;2022-12-16T04:23:04;47.05;;;22.48;;
63536;SDS011;49686;51.880;5.632;2022-12-16T04:25:31;46.85;;;23.38;;
63536;SDS011;49686;51.880;5.632;2022-12-16T04:28:01;39.97;;;21.80;;
63536;SDS011;49686;51.880;5.632;2022-12-16T04:30:28;46.40;;;24.67;;
63536;SDS011;49686;51.880;5.632;2022-12-16T04:32:59;46.78;;;23.95;;
63536;SDS011;49686;51.880;5.632;2022-12-16T04:35:30;39.25;;;21.38;;
63536;SDS011;49686;51.880;5.632;2022-12-16T04:37:58;37.80;;;20.88;;
63536;SDS011;49686;51.880;5.632;2022-12-16T04:40:26;38.65;;;22.20;;
63536;SDS011;49686;51.880;5.632;2022-12-16T04:42:54;46.33;;;23.45;;
63536;SDS011;49686;51.880;5.632;2022-12-16T04:45:21;41.40;;;23.13;;
63536;SDS011;49686;51.880;5.632;2022-12-16T04:47:48;42.50;;;22.65;;
63536;SDS011;49686;51.880;5.632;2022-12-16T04:50:22;45.50;;;22.85;;
63536;SDS011;49686;51.880;5.632;2022-12-16T04:52:49;46.03;;;24.30;;
63536;SDS011;49686;51.880;5.632;2022-12-16T04:55:16;43.75;;;21.17;;
63536;SDS011;49686;51.880;5.632;2022-12-16T04:57:45;42.58;;;20.35;;
63536;SDS011;49686;51.880;5.632;2022-12-16T05:00:16;45.35;;;23.73;;
63536;SDS011;49686;51.880;5.632;2022-12-16T05:02:46;35.97;;;17.98;;
63536;SDS011;49686;51.880;5.632;2022-12-16T05:05:13;42.33;;;22.58;;
63536;SDS011;49686;51.880;5.632;2022-12-16T05:07:40;45.78;;;24.13;;
63536;SDS011;49686;51.880;5.632;2022-12-16T05:10:07;45.17;;;23.70;;
63536;SDS011;49686;51.880;5.632;2022-12-16T05:12:34;49.03;;;23.67;;
63536;SDS011;49686;51.880;5.632;2022-12-16T05:15:02;51.63;;;24.30;;
63536;SDS011;49686;51.880;5.632;2022-12-16T05:17:29;50.58;;;24.33;;
63536;SDS011;49686;51.880;5.632;2022-12-16T05:19:59;43.03;;;22.55;;
63536;SDS011;49686;51.880;5.632;2022-12-16T05:22:27;44.65;;;23.38;;
63536;SDS011;49686;51.880;5.632;2022-12-16T05:25:03;46.35;;;22.67;;
63536;SDS011;49686;51.880;5.632;2022-12-16T05:27:43;43.63;;;22.70;;
63536;SDS011;49686;51.880;5.632;2022-12-16T05:32:38;35.58;;;16.42;;
63536;SDS011;49686;51.880;5.632;2022-12-16T05:35:04;32.47;;;15.10;;
63536;SDS011;49686;51.880;5.632;2022-12-16T05:37:34;43.17;;;19.40;;
63536;SDS011;49686;51.880;5.632;2022-12-16T05:40:00;41.45;;;19.35;;
63536;SDS011;49686;51.880;5.632;2022-12-16T05:42:33;42.25;;;19.42;;
63536;SDS011;49686;51.880;5.632;2022-12-16T05:45:00;29.80;;;15.15;;
63536;SDS011;49686;51.880;5.632;2022-12-16T05:47:30;41.90;;;19.02;;
63536;SDS011;49686;51.880;5.632;2022-12-16T05:49:57;36.55;;;16.70;;
63536;SDS011;49686;51.880;5.632;2022-12-16T05:52:24;40.42;;;19.35;;
63536;SDS011;49686;51.880;5.632;2022-12-16T05:54:50;40.55;;;18.73;;
63536;SDS011;49686;51.880;5.632;2022-12-16T05:57:17;42.00;;;20.48;;
63536;SDS011;49686;51.880;5.632;2022-12-16T05:59:47;40.50;;;20.42;;
63536;SDS011;49686;51.880;5.632;2022-12-16T06:02:16;34.75;;;16.33;;
63536;SDS011;49686;51.880;5.632;2022-12-16T06:04:45;41.35;;;19.80;;
63536;SDS011;49686;51.880;5.632;2022-12-16T06:07:11;37.83;;;18.97;;
63536;SDS011;49686;51.880;5.632;2022-12-16T06:09:41;42.60;;;19.60;;
63536;SDS011;49686;51.880;5.632;2022-12-16T06:12:07;34.20;;;16.25;;
63536;SDS011;49686;51.880;5.632;2022-12-16T06:14:34;36.10;;;16.50;;
63536;SDS011;49686;51.880;5.632;2022-12-16T06:17:01;40.60;;;18.42;;
63536;SDS011;49686;51.880;5.632;2022-12-16T06:19:28;37.85;;;18.73;;
63536;SDS011;49686;51.880;5.632;2022-12-16T06:21:56;40.40;;;19.55;;
63536;SDS011;49686;51.880;5.632;2022-12-16T06:24:24;39.33;;;18.70;;
63536;SDS011;49686;51.880;5.632;2022-12-16T06:26:51;38.13;;;18.58;;
63536;SDS011;49686;51.880;5.632;2022-12-16T06:29:20;37.83;;;18.30;;
63536;SDS011;49686;51.880;5.632;2022-12-16T06:31:48;39.65;;;17.90;;
63536;SDS011;49686;51.880;5.632;2022-12-16T06:34:18;35.08;;;18.08;;
63536;SDS011;49686;51.880;5.632;2022-12-16T06:36:45;39.00;;;18.88;;
63536;SDS011;49686;51.880;5.632;2022-12-16T06:39:13;36.20;;;17.65;;
63536;SDS011;49686;51.880;5.632;2022-12-16T06:41:42;35.95;;;18.13;;
63536;SDS011;49686;51.880;5.632;2022-12-16T06:44:09;35.88;;;16.33;;
63536;SDS011;49686;51.880;5.632;2022-12-16T06:46:35;36.55;;;17.13;;
63536;SDS011;49686;51.880;5.632;2022-12-16T06:49:02;34.35;;;16.98;;
63536;SDS011;49686;51.880;5.632;2022-12-16T06:51:29;33.47;;;17.10;;
63536;SDS011;49686;51.880;5.632;2022-12-16T06:53:56;33.38;;;17.73;;
63536;SDS011;49686;51.880;5.632;2022-12-16T06:56:26;35.92;;;17.65;;
63536;SDS011;49686;51.880;5.632;2022-12-16T06:58:52;28.23;;;13.10;;
63536;SDS011;49686;51.880;5.632;2022-12-16T07:01:19;34.20;;;16.67;;
63536;SDS011;49686;51.880;5.632;2022-12-16T07:03:46;31.90;;;14.30;;
63536;SDS011;49686;51.880;5.632;2022-12-16T07:06:13;37.35;;;14.05;;
63536;SDS011;49686;51.880;5.632;2022-12-16T07:08:42;32.92;;;16.63;;
63536;SDS011;49686;51.880;5.632;2022-12-16T07:11:11;33.22;;;14.73;;
63536;SDS011;49686;51.880;5.632;2022-12-16T07:13:43;31.73;;;13.98;;
63536;SDS011;49686;51.880;5.632;2022-12-16T07:16:10;40.72;;;16.35;;
63536;SDS011;49686;51.880;5.632;2022-12-16T07:18:37;46.47;;;16.00;;
63536;SDS011;49686;51.880;5.632;2022-12-16T07:21:04;25.70;;;11.73;;
63536;SDS011;49686;51.880;5.632;2022-12-16T07:23:31;31.45;;;15.70;;
63536;SDS011;49686;51.880;5.632;2022-12-16T07:25:59;34.65;;;16.38;;
63536;SDS011;49686;51.880;5.632;2022-12-16T07:28:25;33.20;;;15.15;;
63536;SDS011;49686;51.880;5.632;2022-12-16T07:30:54;36.95;;;17.20;;
63536;SDS011;49686;51.880;5.632;2022-12-16T07:33:20;38.03;;;15.30;;
63536;SDS011;49686;51.880;5.632;2022-12-16T07:35:47;36.28;;;15.63;;
63536;SDS011;49686;51.880;5.632;2022-12-16T07:38:17;37.13;;;16.88;;
63536;SDS011;49686;51.880;5.632;2022-12-16T07:40:44;29.70;;;13.73;;
63536;SDS011;49686;51.880;5.632;2022-12-16T07:43:10;27.25;;;13.93;;
63536;SDS011;49686;51.880;5.632;2022-12-16T07:45:37;28.88;;;14.18;;
63536;SDS011;49686;51.880;5.632;2022-12-16T07:48:12;32.78;;;13.70;;
63536;SDS011;49686;51.880;5.632;2022-12-16T07:50:38;32.57;;;15.07;;
63536;SDS011;49686;51.880;5.632;2022-12-16T07:53:06;40.28;;;16.67;;
63536;SDS011;49686;51.880;5.632;2022-12-16T07:55:33;29.63;;;14.45;;
63536;SDS011;49686;51.880;5.632;2022-12-16T07:58:00;33.72;;;16.02;;
63536;SDS011;49686;51.880;5.632;2022-12-16T08:00:27;31.05;;;14.93;;
63536;SDS011;49686;51.880;5.632;2022-12-16T08:02:54;33.92;;;15.57;;
63536;SDS011;49686;51.880;5.632;2022-12-16T08:05:22;29.55;;;15.07;;
63536;SDS011;49686;51.880;5.632;2022-12-16T08:07:49;30.92;;;14.45;;
63536;SDS011;49686;51.880;5.632;2022-12-16T08:10:16;27.65;;;14.23;;
63536;SDS011;49686;51.880;5.632;2022-12-16T08:12:43;29.65;;;14.13;;
63536;SDS011;49686;51.880;5.632;2022-12-16T08:15:10;29.50;;;14.23;;
63536;SDS011;49686;51.880;5.632;2022-12-16T08:17:40;33.15;;;14.63;;
63536;SDS011;49686;51.880;5.632;2022-12-16T08:20:10;35.42;;;16.48;;
63536;SDS011;49686;51.880;5.632;2022-12-16T08:22:39;30.35;;;13.98;;
63536;SDS011;49686;51.880;5.632;2022-12-16T08:25:12;39.70;;;20.05;;
63536;SDS011;49686;51.880;5.632;2022-12-16T08:28:05;23.83;;;12.23;;
63536;SDS011;49686;51.880;5.632;2022-12-16T08:30:31;31.13;;;16.02;;
63536;SDS011;49686;51.880;5.632;2022-12-16T08:32:58;43.35;;;21.85;;
63536;SDS011;49686;51.880;5.632;2022-12-16T08:35:38;45.28;;;23.88;;
63536;SDS011;49686;51.880;5.632;2022-12-16T08:38:06;43.90;;;22.67;;
63536;SDS011;49686;51.880;5.632;2022-12-16T08:40:39;34.92;;;19.10;;
63536;SDS011;49686;51.880;5.632;2022-12-16T08:43:09;39.83;;;22.17;;
63536;SDS011;49686;51.880;5.632;2022-12-16T08:45:38;35.72;;;18.52;;
63536;SDS011;49686;51.880;5.632;2022-12-16T08:48:05;34.92;;;17.48;;
63536;SDS011;49686;51.880;5.632;2022-12-16T08:50:34;31.73;;;17.42;;
63536;SDS011;49686;51.880;5.632;2022-12-16T08:53:07;34.92;;;17.17;;
63536;SDS011;49686;51.880;5.632;2022-12-16T08:55:34;23.92;;;13.50;;
63536;SDS011;49686;51.880;5.632;2022-12-16T08:58:01;33.20;;;16.42;;
63536;SDS011;49686;51.880;5.632;2022-12-16T09:00:28;28.85;;;15.40;;
63536;SDS011;49686;51.880;5.632;2022-12-16T09:02:55;34.53;;;15.82;;
63536;SDS011;49686;51.880;5.632;2022-12-16T09:05:22;26.33;;;14.45;;
63536;SDS011;49686;51.880;5.632;2022-12-16T09:07:49;18.27;;;9.90;;
63536;SDS011;49686;51.880;5.632;2022-12-16T09:10:17;27.20;;;15.13;;
63536;SDS011;49686;51.880;5.632;2022-12-16T09:12:47;24.00;;;13.95;;
63536;SDS011;49686;51.880;5.632;2022-12-16T09:15:14;32.80;;;16.02;;
63536;SDS011;49686;51.880;5.632;2022-12-16T09:17:42;34.47;;;16.80;;
63536;SDS011;49686;51.880;5.632;2022-12-16T09:20:09;29.55;;;15.85;;
63536;SDS011;49686;51.880;5.632;2022-12-16T09:22:43;25.63;;;11.80;;
63536;SDS011;49686;51.880;5.632;2022-12-16T09:25:10;30.38;;;13.48;;
63536;SDS011;49686;51.880;5.632;2022-12-16T09:27:41;29.42;;;14.60;;
63536;SDS011;49686;51.880;5.632;2022-12-16T09:30:08;24.27;;;13.60;;
63536;SDS011;49686;51.880;5.632;2022-12-16T09:32:40;26.33;;;13.73;;
63536;SDS011;49686;51.880;5.632;2022-12-16T09:35:10;21.40;;;12.25;;
63536;SDS011;49686;51.880;5.632;2022-12-16T09:37:44;18.63;;;10.50;;
63536;SDS011;49686;51.880;5.632;2022-12-16T09:40:11;18.83;;;9.52;;
63536;SDS011;49686;51.880;5.632;2022-12-16T09:45:13;28.58;;;15.75;;
63536;SDS011;49686;51.880;5.632;2022-12-16T09:50:31;23.92;;;14.23;;
63536;SDS011;49686;51.880;5.632;2022-12-16T09:53:04;22.80;;;12.70;;
63536;SDS011;49686;51.880;5.632;2022-12-16T09:55:36;23.73;;;12.48;;
63536;SDS011;49686;51.880;5.632;2022-12-16T09:58:09;21.40;;;11.30;;
63536;SDS011;49686;51.880;5.632;2022-12-16T10:00:38;17.48;;;10.02;;
63536;SDS011;49686;51.880;5.632;2022-12-16T10:03:07;16.75;;;10.27;;
63536;SDS011;49686;51.880;5.632;2022-12-16T10:05:46;20.00;;;12.20;;
63536;SDS011;49686;51.880;5.632;2022-12-16T10:08:31;16.10;;;9.43;;
63536;SDS011;49686;51.880;5.632;2022-12-16T10:11:06;19.48;;;9.82;;
63536;SDS011;49686;51.880;5.632;2022-12-16T10:13:39;17.67;;;10.15;;
63536;SDS011;49686;51.880;5.632;2022-12-16T10:16:14;18.52;;;10.50;;
63536;SDS011;49686;51.880;5.632;2022-12-16T10:18:49;22.48;;;12.18;;
63536;SDS011;49686;51.880;5.632;2022-12-16T10:21:22;22.73;;;11.20;;
63536;SDS011;49686;51.880;5.632;2022-12-16T10:23:55;18.80;;;9.48;;
63536;SDS011;49686;51.880;5.632;2022-12-16T10:26:29;17.33;;;8.52;;
63536;SDS011;49686;51.880;5.632;2022-12-16T10:29:05;14.63;;;7.97;;
63536;SDS011;49686;51.880;5.632;2022-12-16T10:31:45;21.73;;;9.43;;
63536;SDS011;49686;51.880;5.632;2022-12-16T10:34:16;18.52;;;9.35;;
63536;SDS011;49686;51.880;5.632;2022-12-16T10:36:52;19.13;;;9.55;;
63536;SDS011;49686;51.880;5.632;2022-12-16T10:39:35;17.10;;;9.65;;
63536;SDS011;49686;51.880;5.632;2022-12-16T10:42:07;18.38;;;9.68;;
63536;SDS011;49686;51.880;5.632;2022-12-16T10:44:51;16.02;;;8.88;;
63536;SDS011;49686;51.880;5.632;2022-12-16T10:47:20;25.65;;;13.48;;
63536;SDS011;49686;51.880;5.632;2022-12-16T10:49:48;45.67;;;23.98;;
63536;SDS011;49686;51.880;5.632;2022-12-16T10:52:23;45.30;;;26.17;;
63536;SDS011;49686;51.880;5.632;2022-12-16T10:54:55;34.70;;;22.52;;
63536;SDS011;49686;51.880;5.632;2022-12-16T10:57:29;22.05;;;12.45;;
63536;SDS011;49686;51.880;5.632;2022-12-16T11:00:17;27.43;;;15.00;;
63536;SDS011;49686;51.880;5.632;2022-12-16T11:02:47;17.77;;;11.90;;
63536;SDS011;49686;51.880;5.632;2022-12-16T11:05:21;17.08;;;10.13;;
63536;SDS011;49686;51.880;5.632;2022-12-16T11:07:55;17.63;;;9.20;;
63536;SDS011;49686;51.880;5.632;2022-12-16T11:10:23;17.70;;;10.05;;
63536;SDS011;49686;51.880;5.632;2022-12-16T11:12:52;18.13;;;10.15;;
63536;SDS011;49686;51.880;5.632;2022-12-16T11:15:21;16.35;;;9.95;;
63536;SDS011;49686;51.880;5.632;2022-12-16T11:17:59;18.17;;;10.80;;
63536;SDS011;49686;51.880;5.632;2022-12-16T11:20:27;12.98;;;7.30;;
63536;SDS011;49686;51.880;5.632;2022-12-16T11:23:05;12.95;;;8.07;;
63536;SDS011;49686;51.880;5.632;2022-12-16T11:25:43;15.90;;;9.50;;
63536;SDS011;49686;51.880;5.632;2022-12-16T11:28:10;15.60;;;7.93;;
63536;SDS011;49686;51.880;5.632;2022-12-16T11:30:40;15.38;;;9.45;;
63536;SDS011;49686;51.880;5.632;2022-12-16T11:33:11;18.63;;;10.97;;
63536;SDS011;49686;51.880;5.632;2022-12-16T11:35:45;15.63;;;8.95;;
63536;SDS011;49686;51.880;5.632;2022-12-16T11:38:20;18.63;;;9.93;;
63536;SDS011;49686;51.880;5.632;2022-12-16T11:40:50;20.10;;;10.02;;
63536;SDS011;49686;51.880;5.632;2022-12-16T11:43:19;20.58;;;11.65;;
63536;SDS011;49686;51.880;5.632;2022-12-16T11:45:50;26.85;;;11.52;;
63536;SDS011;49686;51.880;5.632;2022-12-16T11:48:26;26.80;;;15.88;;
63536;SDS011;49686;51.880;5.632;2022-12-16T11:50:59;21.70;;;12.10;;
63536;SDS011;49686;51.880;5.632;2022-12-16T11:53:29;18.53;;;10.73;;
63536;SDS011;49686;51.880;5.632;2022-12-16T11:56:02;27.63;;;15.27;;
63536;SDS011;49686;51.880;5.632;2022-12-16T11:58:39;19.60;;;9.75;;
63536;SDS011;49686;51.880;5.632;2022-12-16T12:01:13;21.58;;;13.30;;
63536;SDS011;49686;51.880;5.632;2022-12-16T12:03:45;17.50;;;9.80;;
63536;SDS011;49686;51.880;5.632;2022-12-16T12:06:18;23.40;;;12.82;;
63536;SDS011;49686;51.880;5.632;2022-12-16T12:08:53;27.60;;;15.98;;
63536;SDS011;49686;51.880;5.632;2022-12-16T12:11:29;20.63;;;12.40;;
63536;SDS011;49686;51.880;5.632;2022-12-16T12:14:00;21.92;;;11.45;;
63536;SDS011;49686;51.880;5.632;2022-12-16T12:16:38;23.50;;;12.43;;
63536;SDS011;49686;51.880;5.632;2022-12-16T12:19:17;17.60;;;9.70;;
63536;SDS011;49686;51.880;5.632;2022-12-16T12:21:51;20.90;;;11.35;;
63536;SDS011;49686;51.880;5.632;2022-12-16T12:24:28;20.00;;;11.23;;
63536;SDS011;49686;51.880;5.632;2022-12-16T12:27:08;23.75;;;12.77;;
63536;SDS011;49686;51.880;5.632;2022-12-16T12:29:46;21.20;;;11.95;;
63536;SDS011;49686;51.880;5.632;2022-12-16T12:32:27;22.50;;;11.82;;
63536;SDS011;49686;51.880;5.632;2022-12-16T12:35:02;24.48;;;12.38;;
63536;SDS011;49686;51.880;5.632;2022-12-16T12:37:38;25.08;;;13.63;;
63536;SDS011;49686;51.880;5.632;2022-12-16T12:40:14;26.15;;;13.35;;
63536;SDS011;49686;51.880;5.632;2022-12-16T12:42:49;35.55;;;21.25;;
63536;SDS011;49686;51.880;5.632;2022-12-16T12:45:33;28.30;;;16.60;;
63536;SDS011;49686;51.880;5.632;2022-12-16T12:48:14;29.58;;;16.58;;
63536;SDS011;49686;51.880;5.632;2022-12-16T12:50:48;29.17;;;15.23;;
63536;SDS011;49686;51.880;5.632;2022-12-16T12:53:28;32.75;;;20.15;;
63536;SDS011;49686;51.880;5.632;2022-12-16T12:56:10;23.05;;;14.00;;
63536;SDS011;49686;51.880;5.632;2022-12-16T12:58:48;26.30;;;16.38;;
63536;SDS011;49686;51.880;5.632;2022-12-16T13:01:21;27.40;;;16.20;;
63536;SDS011;49686;51.880;5.632;2022-12-16T13:03:55;31.42;;;16.73;;
63536;SDS011;49686;51.880;5.632;2022-12-16T13:06:26;23.42;;;13.35;;
63536;SDS011;49686;51.880;5.632;2022-12-16T13:08:55;23.75;;;13.25;;
63536;SDS011;49686;51.880;5.632;2022-12-16T13:11:26;26.30;;;14.02;;
63536;SDS011;49686;51.880;5.632;2022-12-16T13:14:00;33.35;;;20.15;;
63536;SDS011;49686;51.880;5.632;2022-12-16T13:19:42;33.17;;;19.20;;
63536;SDS011;49686;51.880;5.632;2022-12-16T13:22:23;30.33;;;17.02;;
63536;SDS011;49686;51.880;5.632;2022-12-16T13:24:54;24.33;;;14.13;;
63536;SDS011;49686;51.880;5.632;2022-12-16T13:27:26;26.08;;;15.13;;
63536;SDS011;49686;51.880;5.632;2022-12-16T13:29:59;26.83;;;14.85;;
63536;SDS011;49686;51.880;5.632;2022-12-16T13:32:28;29.48;;;16.45;;
63536;SDS011;49686;51.880;5.632;2022-12-16T13:35:00;22.60;;;12.15;;
63536;SDS011;49686;51.880;5.632;2022-12-16T13:37:28;34.13;;;18.77;;
63536;SDS011;49686;51.880;5.632;2022-12-16T13:40:01;27.30;;;15.45;;
63536;SDS011;49686;51.880;5.632;2022-12-16T13:42:32;33.75;;;16.58;;
63536;SDS011;49686;51.880;5.632;2022-12-16T13:45:23;36.78;;;19.27;;
63536;SDS011;49686;51.880;5.632;2022-12-16T13:47:59;35.50;;;19.08;;
63536;SDS011;49686;51.880;5.632;2022-12-16T13:50:38;34.05;;;18.85;;
63536;SDS011;49686;51.880;5.632;2022-12-16T13:53:08;31.50;;;17.40;;
63536;SDS011;49686;51.880;5.632;2022-12-16T13:55:39;31.30;;;17.00;;
63536;SDS011;49686;51.880;5.632;2022-12-16T13:58:12;33.67;;;16.63;;
63536;SDS011;49686;51.880;5.632;2022-12-16T14:00:49;30.98;;;17.38;;
63536;SDS011;49686;51.880;5.632;2022-12-16T14:03:35;46.90;;;22.27;;
63536;SDS011;49686;51.880;5.632;2022-12-16T14:06:09;38.80;;;21.73;;
63536;SDS011;49686;51.880;5.632;2022-12-16T14:08:42;33.00;;;18.70;;
63536;SDS011;49686;51.880;5.632;2022-12-16T14:11:13;33.35;;;18.02;;
63536;SDS011;49686;51.880;5.632;2022-12-16T14:13:45;30.38;;;17.50;;
63536;SDS011;49686;51.880;5.632;2022-12-16T14:16:19;35.67;;;19.48;;
63536;SDS011;49686;51.880;5.632;2022-12-16T14:18:56;38.78;;;21.45;;
63536;SDS011;49686;51.880;5.632;2022-12-16T14:21:37;41.42;;;23.00;;
63536;SDS011;49686;51.880;5.632;2022-12-16T14:24:11;42.20;;;24.73;;
63536;SDS011;49686;51.880;5.632;2022-12-16T14:26:46;34.50;;;19.67;;
63536;SDS011;49686;51.880;5.632;2022-12-16T14:29:19;36.17;;;20.38;;
63536;SDS011;49686;51.880;5.632;2022-12-16T14:31:48;35.88;;;20.30;;
63536;SDS011;49686;51.880;5.632;2022-12-16T14:34:19;41.20;;;26.52;;
63536;SDS011;49686;51.880;5.632;2022-12-16T14:36:48;30.88;;;18.00;;
63536;SDS011;49686;51.880;5.632;2022-12-16T14:39:19;45.53;;;26.90;;
63536;SDS011;49686;51.880;5.632;2022-12-16T14:41:49;43.65;;;24.63;;
63536;SDS011;49686;51.880;5.632;2022-12-16T14:44:17;40.53;;;22.65;;
63536;SDS011;49686;51.880;5.632;2022-12-16T14:46:49;34.38;;;19.95;;
63536;SDS011;49686;51.880;5.632;2022-12-16T14:49:20;44.97;;;25.30;;
63536;SDS011;49686;51.880;5.632;2022-12-16T14:51:51;40.35;;;23.00;;
63536;SDS011;49686;51.880;5.632;2022-12-16T14:54:22;56.47;;;27.08;;
63536;SDS011;49686;51.880;5.632;2022-12-16T14:56:57;41.42;;;21.52;;
63536;SDS011;49686;51.880;5.632;2022-12-16T14:59:25;41.20;;;22.05;;
63536;SDS011;49686;51.880;5.632;2022-12-16T15:01:55;35.00;;;19.80;;
63536;SDS011;49686;51.880;5.632;2022-12-16T15:04:25;34.70;;;17.85;;
63536;SDS011;49686;51.880;5.632;2022-12-16T15:06:55;37.22;;;18.50;;
63536;SDS011;49686;51.880;5.632;2022-12-16T15:09:23;34.28;;;18.38;;
63536;SDS011;49686;51.880;5.632;2022-12-16T15:11:54;38.75;;;20.63;;
63536;SDS011;49686;51.880;5.632;2022-12-16T15:14:22;39.08;;;21.67;;